sensor_id;sensor_type;location;lat;lon;timestamp;temperature;humidity
58153;DHT22;43967;51.634;5.566;2023-10-08T00:03:32;22.00;68.60
58153;DHT22;43967;51.634;5.566;2023-10-08T00:08:53;22.00;68.60
58153;DHT22;43967;51.634;5.566;2023-10-08T00:14:14;22.00;68.60
58153;DHT22;43967;51.634;5.566;2023-10-08T00:19:36;22.00;68.60
58153;DHT22;43967;51.634;5.566;2023-10-08T00:24:57;22.00;68.50
58153;DHT22;43967;51.634;5.566;2023-10-08T00:30:18;22.00;68.50
58153;DHT22;43967;51.634;5.566;2023-10-08T00:35:41;22.00;68.40
58153;DHT22;43967;51.634;5.566;2023-10-08T00:41:02;22.00;68.50
58153;DHT22;43967;51.634;5.566;2023-10-08T00:46:24;22.00;68.40
58153;DHT22;43967;51.634;5.566;2023-10-08T00:51:45;22.00;68.50
58153;DHT22;43967;51.634;5.566;2023-10-08T00:57:06;22.00;68.40
58153;DHT22;43967;51.634;5.566;2023-10-08T01:02:29;22.00;68.40
58153;DHT22;43967;51.634;5.566;2023-10-08T01:07:52;22.00;68.40
58153;DHT22;43967;51.634;5.566;2023-10-08T01:13:14;22.00;68.40
58153;DHT22;43967;51.634;5.566;2023-10-08T01:18:36;22.00;68.30
58153;DHT22;43967;51.634;5.566;2023-10-08T01:23:57;21.90;68.20
58153;DHT22;43967;51.634;5.566;2023-10-08T01:29:18;22.00;68.40
58153;DHT22;43967;51.634;5.566;2023-10-08T01:34:39;21.90;68.90
58153;DHT22;43967;51.634;5.566;2023-10-08T01:40:01;21.90;68.10
58153;DHT22;43967;51.634;5.566;2023-10-08T01:45:22;21.90;68.10
58153;DHT22;43967;51.634;5.566;2023-10-08T01:50:43;21.90;68.20
58153;DHT22;43967;51.634;5.566;2023-10-08T01:56:05;21.90;68.00
58153;DHT22;43967;51.634;5.566;2023-10-08T02:01:26;21.90;68.10
58153;DHT22;43967;51.634;5.566;2023-10-08T02:06:47;21.90;67.90
58153;DHT22;43967;51.634;5.566;2023-10-08T02:12:09;21.90;67.90
58153;DHT22;43967;51.634;5.566;2023-10-08T02:17:30;21.90;67.90
58153;DHT22;43967;51.634;5.566;2023-10-08T02:22:51;21.90;67.90
58153;DHT22;43967;51.634;5.566;2023-10-08T02:28:12;21.90;68.00
58153;DHT22;43967;51.634;5.566;2023-10-08T02:33:34;21.90;67.90
58153;DHT22;43967;51.634;5.566;2023-10-08T02:38:55;21.90;67.90
58153;DHT22;43967;51.634;5.566;2023-10-08T02:44:17;21.90;67.80
58153;DHT22;43967;51.634;5.566;2023-10-08T02:49:38;21.90;67.80
58153;DHT22;43967;51.634;5.566;2023-10-08T02:54:59;21.90;67.70
58153;DHT22;43967;51.634;5.566;2023-10-08T03:00:21;21.90;67.80
58153;DHT22;43967;51.634;5.566;2023-10-08T03:05:44;21.90;67.70
58153;DHT22;43967;51.634;5.566;2023-10-08T03:11:09;21.90;67.80
58153;DHT22;43967;51.634;5.566;2023-10-08T03:16:30;21.90;67.80
58153;DHT22;43967;51.634;5.566;2023-10-08T03:21:51;21.90;67.80
58153;DHT22;43967;51.634;5.566;2023-10-08T03:27:13;21.90;67.80
58153;DHT22;43967;51.634;5.566;2023-10-08T03:32:34;21.90;67.70
58153;DHT22;43967;51.634;5.566;2023-10-08T03:37:56;21.90;67.80
58153;DHT22;43967;51.634;5.566;2023-10-08T03:43:17;21.90;67.70
58153;DHT22;43967;51.634;5.566;2023-10-08T03:48:38;21.90;67.70
58153;DHT22;43967;51.634;5.566;2023-10-08T03:53:59;21.80;67.70
58153;DHT22;43967;51.634;5.566;2023-10-08T03:59:21;21.80;67.70
58153;DHT22;43967;51.634;5.566;2023-10-08T04:04:42;21.80;67.70
58153;DHT22;43967;51.634;5.566;2023-10-08T04:10:04;21.90;67.80
58153;DHT22;43967;51.634;5.566;2023-10-08T04:15:25;21.80;67.70
58153;DHT22;43967;51.634;5.566;2023-10-08T04:20:47;21.80;67.80
58153;DHT22;43967;51.634;5.566;2023-10-08T04:26:08;21.90;67.70
58153;DHT22;43967;51.634;5.566;2023-10-08T04:31:29;21.80;67.70
58153;DHT22;43967;51.634;5.566;2023-10-08T04:36:51;21.80;67.60
58153;DHT22;43967;51.634;5.566;2023-10-08T04:42:12;21.80;67.70
58153;DHT22;43967;51.634;5.566;2023-10-08T04:47:33;21.80;67.70
58153;DHT22;43967;51.634;5.566;2023-10-08T04:52:54;21.80;67.60
58153;DHT22;43967;51.634;5.566;2023-10-08T04:58:16;21.80;67.60
58153;DHT22;43967;51.634;5.566;2023-10-08T05:03:37;21.80;67.60
58153;DHT22;43967;51.634;5.566;2023-10-08T05:08:58;21.80;67.60
58153;DHT22;43967;51.634;5.566;2023-10-08T05:14:24;21.80;67.50
58153;DHT22;43967;51.634;5.566;2023-10-08T05:19:45;21.80;67.50
58153;DHT22;43967;51.634;5.566;2023-10-08T05:25:07;21.80;67.50
58153;DHT22;43967;51.634;5.566;2023-10-08T05:30:30;21.80;67.60
58153;DHT22;43967;51.634;5.566;2023-10-08T05:35:52;21.80;67.60
58153;DHT22;43967;51.634;5.566;2023-10-08T05:41:13;21.80;67.60
58153;DHT22;43967;51.634;5.566;2023-10-08T05:46:34;21.80;68.40
58153;DHT22;43967;51.634;5.566;2023-10-08T05:51:56;21.80;67.50
58153;DHT22;43967;51.634;5.566;2023-10-08T05:57:17;21.80;67.50
58153;DHT22;43967;51.634;5.566;2023-10-08T06:02:40;21.80;67.50
58153;DHT22;43967;51.634;5.566;2023-10-08T06:08:02;21.80;67.60
58153;DHT22;43967;51.634;5.566;2023-10-08T06:13:23;21.80;67.60
58153;DHT22;43967;51.634;5.566;2023-10-08T06:18:45;21.80;68.30
58153;DHT22;43967;51.634;5.566;2023-10-08T06:24:07;21.70;68.10
58153;DHT22;43967;51.634;5.566;2023-10-08T06:29:28;21.70;67.50
58153;DHT22;43967;51.634;5.566;2023-10-08T06:34:49;21.70;67.50
58153;DHT22;43967;51.634;5.566;2023-10-08T06:40:14;21.70;67.50
58153;DHT22;43967;51.634;5.566;2023-10-08T06:45:35;21.80;67.50
58153;DHT22;43967;51.634;5.566;2023-10-08T06:50:56;21.70;67.40
58153;DHT22;43967;51.634;5.566;2023-10-08T06:56:17;21.70;67.40
58153;DHT22;43967;51.634;5.566;2023-10-08T07:01:40;21.80;67.50
58153;DHT22;43967;51.634;5.566;2023-10-08T07:07:02;21.70;67.40
58153;DHT22;43967;51.634;5.566;2023-10-08T07:12:23;21.70;67.50
58153;DHT22;43967;51.634;5.566;2023-10-08T07:17:44;21.70;67.50
58153;DHT22;43967;51.634;5.566;2023-10-08T07:23:06;21.70;67.60
58153;DHT22;43967;51.634;5.566;2023-10-08T07:28:28;21.70;67.60
58153;DHT22;43967;51.634;5.566;2023-10-08T07:33:54;21.70;67.80
58153;DHT22;43967;51.634;5.566;2023-10-08T07:39:16;21.60;67.50
58153;DHT22;43967;51.634;5.566;2023-10-08T07:44:38;21.70;67.60
58153;DHT22;43967;51.634;5.566;2023-10-08T07:50:00;21.60;67.50
58153;DHT22;43967;51.634;5.566;2023-10-08T07:55:21;21.60;67.50
58153;DHT22;43967;51.634;5.566;2023-10-08T08:00:43;21.60;67.60
58153;DHT22;43967;51.634;5.566;2023-10-08T08:06:08;21.60;67.50
58153;DHT22;43967;51.634;5.566;2023-10-08T08:11:30;21.60;67.50
58153;DHT22;43967;51.634;5.566;2023-10-08T08:16:51;21.70;67.50
58153;DHT22;43967;51.634;5.566;2023-10-08T08:22:14;21.60;67.50
58153;DHT22;43967;51.634;5.566;2023-10-08T08:27:35;21.60;67.50
58153;DHT22;43967;51.634;5.566;2023-10-08T08:32:56;21.50;68.10
58153;DHT22;43967;51.634;5.566;2023-10-08T08:38:17;21.50;67.70
58153;DHT22;43967;51.634;5.566;2023-10-08T08:43:39;21.50;67.90
58153;DHT22;43967;51.634;5.566;2023-10-08T08:49:10;21.50;68.10
58153;DHT22;43967;51.634;5.566;2023-10-08T08:54:32;21.50;68.30
58153;DHT22;43967;51.634;5.566;2023-10-08T08:59:53;21.40;68.40
58153;DHT22;43967;51.634;5.566;2023-10-08T09:05:16;21.40;68.50
58153;DHT22;43967;51.634;5.566;2023-10-08T09:10:38;21.50;68.60
58153;DHT22;43967;51.634;5.566;2023-10-08T09:16:15;21.50;68.60
58153;DHT22;43967;51.634;5.566;2023-10-08T09:21:37;21.40;68.60
58153;DHT22;43967;51.634;5.566;2023-10-08T09:26:59;21.40;68.60
58153;DHT22;43967;51.634;5.566;2023-10-08T09:32:20;21.40;68.70
58153;DHT22;43967;51.634;5.566;2023-10-08T09:37:43;21.40;68.90
58153;DHT22;43967;51.634;5.566;2023-10-08T09:43:05;21.40;69.00
58153;DHT22;43967;51.634;5.566;2023-10-08T09:48:30;21.50;69.30
58153;DHT22;43967;51.634;5.566;2023-10-08T09:54:09;21.50;69.50
58153;DHT22;43967;51.634;5.566;2023-10-08T09:59:31;21.60;69.50
58153;DHT22;43967;51.634;5.566;2023-10-08T10:04:55;21.60;69.60
58153;DHT22;43967;51.634;5.566;2023-10-08T10:10:29;21.60;69.60
58153;DHT22;43967;51.634;5.566;2023-10-08T10:15:51;21.60;69.60
58153;DHT22;43967;51.634;5.566;2023-10-08T10:26:35;21.80;69.50
58153;DHT22;43967;51.634;5.566;2023-10-08T10:31:57;21.70;69.20
58153;DHT22;43967;51.634;5.566;2023-10-08T10:37:19;21.40;68.40
58153;DHT22;43967;51.634;5.566;2023-10-08T10:42:40;21.50;70.00
58153;DHT22;43967;51.634;5.566;2023-10-08T10:48:05;21.60;69.40
58153;DHT22;43967;51.634;5.566;2023-10-08T10:53:26;21.70;69.60
58153;DHT22;43967;51.634;5.566;2023-10-08T10:58:48;21.80;69.80
58153;DHT22;43967;51.634;5.566;2023-10-08T11:04:09;21.90;69.80
58153;DHT22;43967;51.634;5.566;2023-10-08T11:09:30;21.80;69.70
58153;DHT22;43967;51.634;5.566;2023-10-08T11:14:54;21.80;69.80
58153;DHT22;43967;51.634;5.566;2023-10-08T11:20:26;21.90;69.80
58153;DHT22;43967;51.634;5.566;2023-10-08T11:26:00;21.90;69.80
58153;DHT22;43967;51.634;5.566;2023-10-08T11:31:21;21.90;69.70
58153;DHT22;43967;51.634;5.566;2023-10-08T11:36:42;22.00;69.80
58153;DHT22;43967;51.634;5.566;2023-10-08T11:42:04;21.80;69.20
58153;DHT22;43967;51.634;5.566;2023-10-08T11:47:25;21.70;69.00
58153;DHT22;43967;51.634;5.566;2023-10-08T11:52:47;21.60;69.00
58153;DHT22;43967;51.634;5.566;2023-10-08T11:58:09;21.50;69.00
58153;DHT22;43967;51.634;5.566;2023-10-08T12:03:30;21.50;69.00
58153;DHT22;43967;51.634;5.566;2023-10-08T12:08:51;21.40;69.30
58153;DHT22;43967;51.634;5.566;2023-10-08T12:14:12;21.40;69.60
58153;DHT22;43967;51.634;5.566;2023-10-08T12:19:34;21.40;69.70
58153;DHT22;43967;51.634;5.566;2023-10-08T12:24:55;21.40;69.70
58153;DHT22;43967;51.634;5.566;2023-10-08T12:30:16;21.40;69.80
58153;DHT22;43967;51.634;5.566;2023-10-08T12:35:41;21.30;69.60
58153;DHT22;43967;51.634;5.566;2023-10-08T12:41:03;21.40;69.40
58153;DHT22;43967;51.634;5.566;2023-10-08T12:46:24;21.30;69.60
58153;DHT22;43967;51.634;5.566;2023-10-08T12:51:45;21.30;69.40
58153;DHT22;43967;51.634;5.566;2023-10-08T12:57:07;21.30;70.00
58153;DHT22;43967;51.634;5.566;2023-10-08T13:02:28;21.50;69.40
58153;DHT22;43967;51.634;5.566;2023-10-08T13:07:49;21.60;69.40
58153;DHT22;43967;51.634;5.566;2023-10-08T13:13:10;21.60;69.20
58153;DHT22;43967;51.634;5.566;2023-10-08T13:18:32;21.70;69.20
58153;DHT22;43967;51.634;5.566;2023-10-08T13:23:56;21.70;69.10
58153;DHT22;43967;51.634;5.566;2023-10-08T13:29:17;21.80;69.20
58153;DHT22;43967;51.634;5.566;2023-10-08T13:34:39;21.80;69.10
58153;DHT22;43967;51.634;5.566;2023-10-08T13:40:00;21.80;69.20
58153;DHT22;43967;51.634;5.566;2023-10-08T13:45:21;21.80;69.30
58153;DHT22;43967;51.634;5.566;2023-10-08T13:50:43;21.90;69.30
58153;DHT22;43967;51.634;5.566;2023-10-08T13:56:04;21.90;69.30
58153;DHT22;43967;51.634;5.566;2023-10-08T14:01:25;21.90;69.40
58153;DHT22;43967;51.634;5.566;2023-10-08T14:06:47;21.90;69.50
58153;DHT22;43967;51.634;5.566;2023-10-08T14:12:08;21.90;69.60
58153;DHT22;43967;51.634;5.566;2023-10-08T14:17:29;22.00;69.70
58153;DHT22;43967;51.634;5.566;2023-10-08T14:22:50;22.00;69.70
58153;DHT22;43967;51.634;5.566;2023-10-08T14:28:12;21.90;69.70
58153;DHT22;43967;51.634;5.566;2023-10-08T14:33:34;22.00;69.80
58153;DHT22;43967;51.634;5.566;2023-10-08T14:38:55;22.00;69.80
58153;DHT22;43967;51.634;5.566;2023-10-08T14:44:16;22.00;69.90
58153;DHT22;43967;51.634;5.566;2023-10-08T14:49:37;22.00;69.90
58153;DHT22;43967;51.634;5.566;2023-10-08T14:54:59;22.00;70.00
58153;DHT22;43967;51.634;5.566;2023-10-08T15:00:21;22.00;70.20
58153;DHT22;43967;51.634;5.566;2023-10-08T15:05:42;22.00;70.40
58153;DHT22;43967;51.634;5.566;2023-10-08T15:11:03;22.00;70.60
58153;DHT22;43967;51.634;5.566;2023-10-08T15:16:24;22.10;70.60
58153;DHT22;43967;51.634;5.566;2023-10-08T15:21:46;22.10;70.60
58153;DHT22;43967;51.634;5.566;2023-10-08T15:27:07;22.10;70.60
58153;DHT22;43967;51.634;5.566;2023-10-08T15:32:29;22.10;70.60
58153;DHT22;43967;51.634;5.566;2023-10-08T15:37:50;22.10;70.60
58153;DHT22;43967;51.634;5.566;2023-10-08T15:43:12;22.10;71.30
58153;DHT22;43967;51.634;5.566;2023-10-08T15:48:33;22.10;70.60
58153;DHT22;43967;51.634;5.566;2023-10-08T15:53:55;22.10;70.70
58153;DHT22;43967;51.634;5.566;2023-10-08T15:59:16;22.10;70.80
58153;DHT22;43967;51.634;5.566;2023-10-08T16:04:37;22.10;71.00
58153;DHT22;43967;51.634;5.566;2023-10-08T16:09:58;22.10;71.20
58153;DHT22;43967;51.634;5.566;2023-10-08T16:15:20;22.10;71.20
58153;DHT22;43967;51.634;5.566;2023-10-08T16:20:41;22.10;71.10
58153;DHT22;43967;51.634;5.566;2023-10-08T16:26:03;22.10;71.10
58153;DHT22;43967;51.634;5.566;2023-10-08T16:31:24;22.10;71.00
58153;DHT22;43967;51.634;5.566;2023-10-08T16:36:46;22.10;71.10
58153;DHT22;43967;51.634;5.566;2023-10-08T16:42:07;22.10;71.10
58153;DHT22;43967;51.634;5.566;2023-10-08T16:47:28;22.10;71.00
58153;DHT22;43967;51.634;5.566;2023-10-08T16:52:50;22.10;71.00
58153;DHT22;43967;51.634;5.566;2023-10-08T16:58:11;22.10;71.00
58153;DHT22;43967;51.634;5.566;2023-10-08T17:03:32;22.10;70.90
58153;DHT22;43967;51.634;5.566;2023-10-08T17:08:53;22.10;70.90
58153;DHT22;43967;51.634;5.566;2023-10-08T17:14:15;22.10;70.90
58153;DHT22;43967;51.634;5.566;2023-10-08T17:19:37;22.10;70.80
58153;DHT22;43967;51.634;5.566;2023-10-08T17:24:58;22.10;70.80
58153;DHT22;43967;51.634;5.566;2023-10-08T17:30:19;22.10;70.90
58153;DHT22;43967;51.634;5.566;2023-10-08T17:35:40;22.10;71.20
58153;DHT22;43967;51.634;5.566;2023-10-08T17:41:02;22.10;71.30
58153;DHT22;43967;51.634;5.566;2023-10-08T17:46:23;22.00;71.40
58153;DHT22;43967;51.634;5.566;2023-10-08T17:51:45;22.00;71.50
58153;DHT22;43967;51.634;5.566;2023-10-08T17:57:06;22.00;71.50
58153;DHT22;43967;51.634;5.566;2023-10-08T18:02:27;22.00;71.50
58153;DHT22;43967;51.634;5.566;2023-10-08T18:07:49;22.00;71.40
58153;DHT22;43967;51.634;5.566;2023-10-08T18:13:10;21.90;71.30
58153;DHT22;43967;51.634;5.566;2023-10-08T18:18:31;21.90;71.30
58153;DHT22;43967;51.634;5.566;2023-10-08T18:23:53;21.90;71.30
58153;DHT22;43967;51.634;5.566;2023-10-08T18:29:15;21.90;71.20
58153;DHT22;43967;51.634;5.566;2023-10-08T18:34:36;21.90;71.20
58153;DHT22;43967;51.634;5.566;2023-10-08T18:39:58;21.90;71.20
58153;DHT22;43967;51.634;5.566;2023-10-08T18:45:19;21.90;71.10
58153;DHT22;43967;51.634;5.566;2023-10-08T18:50:40;21.90;70.90
58153;DHT22;43967;51.634;5.566;2023-10-08T18:56:06;21.90;70.90
58153;DHT22;43967;51.634;5.566;2023-10-08T19:01:27;21.90;70.80
58153;DHT22;43967;51.634;5.566;2023-10-08T19:06:49;21.90;70.80
58153;DHT22;43967;51.634;5.566;2023-10-08T19:12:10;21.90;70.60
58153;DHT22;43967;51.634;5.566;2023-10-08T19:17:31;21.90;70.30
58153;DHT22;43967;51.634;5.566;2023-10-08T19:22:52;21.90;70.20
58153;DHT22;43967;51.634;5.566;2023-10-08T19:28:14;21.90;69.90
58153;DHT22;43967;51.634;5.566;2023-10-08T19:33:35;21.90;69.80
58153;DHT22;43967;51.634;5.566;2023-10-08T19:38:56;21.90;69.60
58153;DHT22;43967;51.634;5.566;2023-10-08T19:44:18;21.90;69.40
58153;DHT22;43967;51.634;5.566;2023-10-08T19:49:39;21.90;69.20
58153;DHT22;43967;51.634;5.566;2023-10-08T19:55:00;21.90;69.10
58153;DHT22;43967;51.634;5.566;2023-10-08T20:00:22;21.90;69.00
58153;DHT22;43967;51.634;5.566;2023-10-08T20:05:43;21.90;68.80
58153;DHT22;43967;51.634;5.566;2023-10-08T20:11:04;21.90;68.80
58153;DHT22;43967;51.634;5.566;2023-10-08T20:16:26;21.90;69.00
58153;DHT22;43967;51.634;5.566;2023-10-08T20:21:47;21.90;69.10
58153;DHT22;43967;51.634;5.566;2023-10-08T20:27:08;21.90;69.10
58153;DHT22;43967;51.634;5.566;2023-10-08T20:32:30;21.80;69.20
58153;DHT22;43967;51.634;5.566;2023-10-08T20:37:51;21.80;69.30
58153;DHT22;43967;51.634;5.566;2023-10-08T20:43:13;21.80;69.20
58153;DHT22;43967;51.634;5.566;2023-10-08T20:48:34;21.80;69.20
58153;DHT22;43967;51.634;5.566;2023-10-08T20:53:55;21.80;69.20
58153;DHT22;43967;51.634;5.566;2023-10-08T20:59:17;21.90;69.20
58153;DHT22;43967;51.634;5.566;2023-10-08T21:04:38;21.80;69.20
58153;DHT22;43967;51.634;5.566;2023-10-08T21:10:00;21.80;69.20
58153;DHT22;43967;51.634;5.566;2023-10-08T21:15:23;21.80;69.00
58153;DHT22;43967;51.634;5.566;2023-10-08T21:20:47;21.80;68.80
58153;DHT22;43967;51.634;5.566;2023-10-08T21:26:08;21.80;68.80
58153;DHT22;43967;51.634;5.566;2023-10-08T21:31:30;21.80;68.90
58153;DHT22;43967;51.634;5.566;2023-10-08T21:36:51;21.80;68.60
58153;DHT22;43967;51.634;5.566;2023-10-08T21:42:12;21.80;68.50
58153;DHT22;43967;51.634;5.566;2023-10-08T21:47:34;21.80;68.50
58153;DHT22;43967;51.634;5.566;2023-10-08T21:52:55;21.80;68.50
58153;DHT22;43967;51.634;5.566;2023-10-08T21:58:17;21.80;68.40
58153;DHT22;43967;51.634;5.566;2023-10-08T22:03:38;21.80;68.50
58153;DHT22;43967;51.634;5.566;2023-10-08T22:09:00;21.80;68.80
58153;DHT22;43967;51.634;5.566;2023-10-08T22:14:21;21.70;68.70
58153;DHT22;43967;51.634;5.566;2023-10-08T22:19:43;21.80;68.40
58153;DHT22;43967;51.634;5.566;2023-10-08T22:25:04;21.80;68.40
58153;DHT22;43967;51.634;5.566;2023-10-08T22:30:25;21.70;68.30
58153;DHT22;43967;51.634;5.566;2023-10-08T22:35:47;21.70;68.30
58153;DHT22;43967;51.634;5.566;2023-10-08T22:41:09;21.70;68.50
58153;DHT22;43967;51.634;5.566;2023-10-08T22:46:30;21.70;68.60
58153;DHT22;43967;51.634;5.566;2023-10-08T22:51:51;21.70;68.60
58153;DHT22;43967;51.634;5.566;2023-10-08T22:57:12;21.70;68.50
58153;DHT22;43967;51.634;5.566;2023-10-08T23:02:34;21.70;68.50
58153;DHT22;43967;51.634;5.566;2023-10-08T23:07:55;21.70;68.50
58153;DHT22;43967;51.634;5.566;2023-10-08T23:13:17;21.70;68.70
58153;DHT22;43967;51.634;5.566;2023-10-08T23:18:38;21.70;68.70
58153;DHT22;43967;51.634;5.566;2023-10-08T23:23:59;21.70;68.60
58153;DHT22;43967;51.634;5.566;2023-10-08T23:29:20;21.70;68.50
58153;DHT22;43967;51.634;5.566;2023-10-08T23:34:42;21.70;68.60
58153;DHT22;43967;51.634;5.566;2023-10-08T23:40:04;21.70;68.40
58153;DHT22;43967;51.634;5.566;2023-10-08T23:45:26;21.70;68.40
58153;DHT22;43967;51.634;5.566;2023-10-08T23:50:48;21.70;68.30
58153;DHT22;43967;51.634;5.566;2023-10-08T23:56:10;21.70;68.30
